Time;durP1;ratioP1;P1;durP2;ratioP2;P2;SDS_P1;SDS_P2;PMS_P1;PMS_P2;Temp;Humidity;BMP_temperature;BMP_pressure;BME280_temperature;BME280_humidity;BME280_pressure;Samples;Min_cycle;Max_cycle;Signal;HPM_P1;HPM_P2
2023/06/24 00:01:31;;;;;;;9.60;5.35;;;;;;;16.28;85.96;97127.38;5056394;28;20098;-74
2023/06/24 00:03:57;;;;;;;10.02;5.20;;;;;;;16.23;85.71;97130.31;5052188;28;20056;-73
2023/06/24 00:06:25;;;;;;;6.78;4.32;;;;;;;16.31;85.66;97126.72;5051313;28;20481;-74
2023/06/24 00:09:00;;;;;;;6.75;4.90;;;;;;;16.40;85.90;97132.94;5052193;28;20049;-74
2023/06/24 00:11:27;;;;;;;6.85;5.10;;;;;;;16.16;85.99;97136.38;5051167;28;20711;-74
2023/06/24 00:13:53;;;;;;;7.63;5.60;;;;;;;16.20;85.98;97135.69;5052237;28;20408;-73
2023/06/24 00:16:27;;;;;;;8.52;5.82;;;;;;;16.20;86.42;97131.00;5052048;28;20091;-73
2023/06/24 00:18:58;;;;;;;11.27;5.47;;;;;;;16.21;86.62;97132.63;5051692;28;20098;-73
2023/06/24 00:21:29;;;;;;;11.85;5.55;;;;;;;16.20;86.42;97131.00;5051113;28;20045;-73
2023/06/24 00:23:56;;;;;;;7.53;4.40;;;;;;;16.22;86.14;97134.22;5051866;28;20065;-74
2023/06/24 00:26:23;;;;;;;6.97;4.78;;;;;;;16.29;85.57;97130.94;5051397;28;20064;-74
2023/06/24 00:28:49;;;;;;;9.02;5.82;;;;;;;16.23;86.13;97141.31;5050660;28;20040;-73
2023/06/24 00:31:16;;;;;;;7.35;5.25;;;;;;;16.25;85.86;97138.25;5050965;28;20049;-74
2023/06/24 00:33:42;;;;;;;6.60;4.88;;;;;;;16.35;85.99;97130.41;5051270;28;20076;-73
2023/06/24 00:36:11;;;;;;;8.40;5.93;;;;;;;16.16;85.36;97130.88;5051318;28;20416;-74
2023/06/24 00:38:39;;;;;;;9.77;4.97;;;;;;;16.23;85.38;97141.31;5059803;28;20041;-74
2023/06/24 00:41:07;;;;;;;8.10;4.63;;;;;;;16.22;85.36;97128.72;5050896;28;20060;-74
2023/06/24 00:43:33;;;;;;;7.38;4.63;;;;;;;16.21;85.48;97129.88;5058886;28;20409;-74
2023/06/24 00:46:00;;;;;;;10.27;5.50;;;;;;;16.25;85.20;97130.81;5051898;28;20068;-74
2023/06/24 00:48:27;;;;;;;5.80;4.32;;;;;;;16.29;85.35;97118.00;5051417;28;20033;-74
2023/06/24 00:50:53;;;;;;;7.78;5.50;;;;;;;16.25;85.70;97121.75;5051299;28;20041;-73
2023/06/24 00:53:24;;;;;;;8.15;5.60;;;;;;;16.22;85.77;97106.72;5051038;28;20048;-74
2023/06/24 00:55:52;;;;;;;7.97;5.28;;;;;;;16.30;86.31;97114.13;5046753;28;20142;-73
2023/06/24 00:58:20;;;;;;;7.93;5.25;;;;;;;16.33;86.15;97107.94;5050472;28;20049;-73
2023/06/24 01:00:48;;;;;;;7.95;4.82;;;;;;;16.29;85.97;97107.00;5050207;28;20079;-73
2023/06/24 01:03:16;;;;;;;9.18;5.32;;;;;;;16.29;85.65;97095.22;5049904;28;20041;-74
2023/06/24 01:05:44;;;;;;;7.53;4.93;;;;;;;16.21;85.75;97096.88;5050912;28;20044;-74
2023/06/24 01:08:15;;;;;;;7.38;5.50;;;;;;;16.31;85.91;97101.19;5050564;28;20053;-74
2023/06/24 01:10:42;;;;;;;7.20;4.70;;;;;;;16.37;85.66;97103.38;5049783;28;20051;-73
2023/06/24 01:13:09;;;;;;;7.22;5.30;;;;;;;16.34;85.00;97098.56;5042414;28;20052;-74
2023/06/24 01:15:37;;;;;;;7.50;5.72;;;;;;;16.31;84.87;97093.72;5050542;28;20051;-74
2023/06/24 01:18:09;;;;;;;8.95;5.32;;;;;;;16.32;85.11;97097.28;5049527;28;20049;-74
2023/06/24 01:20:46;;;;;;;6.07;5.10;;;;;;;16.40;84.91;97091.72;5045570;28;20064;-73
2023/06/24 01:23:34;;;;;;;6.88;4.72;;;;;;;16.46;84.07;97097.00;5042586;28;20073;-74
2023/06/24 01:26:19;;;;;;;6.15;4.95;;;;;;;16.49;83.63;97096.31;5050550;28;20044;-73
2023/06/24 01:29:21;;;;;;;6.53;4.72;;;;;;;16.53;83.29;97100.00;5047778;28;20033;-74
2023/06/24 01:31:53;;;;;;;6.90;4.43;;;;;;;16.52;83.55;97093.69;5050305;28;20450;-74
2023/06/24 01:34:26;;;;;;;7.22;4.60;;;;;;;16.54;83.70;97096.09;5040803;28;20040;-74
2023/06/24 01:37:09;;;;;;;6.97;5.30;;;;;;;16.48;83.88;97091.97;5050358;28;20045;-73
2023/06/24 01:39:43;;;;;;;7.00;4.63;;;;;;;16.50;83.87;97096.00;5043713;28;20052;-74
2023/06/24 01:42:13;;;;;;;6.13;4.63;;;;;;;16.53;83.59;97086.25;5042102;28;20040;-74
2023/06/24 01:44:44;;;;;;;7.55;5.10;;;;;;;16.52;82.87;97090.16;5050374;28;20440;-73
2023/06/24 01:47:15;;;;;;;6.75;5.10;;;;;;;16.51;82.81;97088.53;5049532;28;20052;-74
2023/06/24 01:49:43;;;;;;;6.45;4.50;;;;;;;16.40;82.58;97086.22;5050133;28;20057;-74
2023/06/24 01:52:11;;;;;;;6.88;5.07;;;;;;;16.30;82.93;97081.13;5049742;28;20117;-74
2023/06/24 01:54:40;;;;;;;7.10;4.80;;;;;;;16.37;83.32;97086.09;5050231;28;20056;-73
2023/06/24 01:57:08;;;;;;;6.53;4.80;;;;;;;16.35;82.77;97083.69;5049468;28;20036;-74
2023/06/24 01:59:36;;;;;;;7.47;4.63;;;;;;;16.40;83.43;97080.72;5049958;28;20048;-73
2023/06/24 02:02:04;;;;;;;8.20;5.40;;;;;;;16.42;83.05;97086.66;5048334;28;20045;-74
2023/06/24 02:04:34;;;;;;;5.95;4.88;;;;;;;16.40;82.93;97083.47;5050187;28;20051;-74
2023/06/24 02:07:02;;;;;;;7.30;4.90;;;;;;;16.41;82.50;97082.31;5049649;28;20049;-74
2023/06/24 02:09:32;;;;;;;9.70;5.80;;;;;;;16.30;82.78;97085.84;5049609;28;20037;-74
2023/06/24 02:11:59;;;;;;;7.25;5.07;;;;;;;16.29;83.13;97089.72;5049911;28;20044;-74
2023/06/24 02:14:28;;;;;;;7.45;5.00;;;;;;;16.24;83.09;97087.97;5048994;28;20056;-74
2023/06/24 02:16:57;;;;;;;9.45;5.30;;;;;;;16.35;83.18;97083.69;5049293;28;20049;-74
2023/06/24 02:19:26;;;;;;;6.45;4.50;;;;;;;16.38;83.38;97085.72;5048874;28;20118;-73
2023/06/24 02:21:57;;;;;;;5.75;4.43;;;;;;;16.39;83.82;97079.13;5049864;28;20049;-73
2023/06/24 02:24:24;;;;;;;9.52;5.13;;;;;;;16.42;83.53;97086.66;5049656;28;20045;-74
2023/06/24 02:26:52;;;;;;;6.28;4.78;;;;;;;16.40;82.91;97097.22;5049160;28;20048;-74
2023/06/24 02:29:19;;;;;;;9.15;5.50;;;;;;;16.35;83.12;97100.16;5049193;28;20045;-74
2023/06/24 02:31:46;;;;;;;8.25;4.57;;;;;;;16.42;83.79;97100.41;5049682;28;20041;-73
2023/06/24 02:34:12;;;;;;;7.85;5.55;;;;;;;16.44;83.04;97103.66;5047606;28;20059;-74
2023/06/24 02:36:39;;;;;;;7.85;5.20;;;;;;;16.43;82.90;97106.72;5049703;28;20045;-73
2023/06/24 02:39:07;;;;;;;8.10;5.32;;;;;;;16.38;83.06;97106.91;5049092;28;20047;-73
2023/06/24 02:41:33;;;;;;;8.18;5.78;;;;;;;16.40;83.28;97110.16;5049615;28;20045;-74
2023/06/24 02:44:00;;;;;;;11.57;5.78;;;;;;;16.35;83.17;97105.66;5051610;28;20068;-74
2023/06/24 02:46:29;;;;;;;7.53;5.03;;;;;;;16.35;83.34;97111.16;5051693;28;20051;-74
2023/06/24 02:48:59;;;;;;;6.93;5.00;;;;;;;16.39;83.62;97105.78;5051018;28;20047;-73
2023/06/24 02:51:26;;;;;;;7.60;5.60;;;;;;;16.40;83.23;97113.72;5051768;28;20091;-74
2023/06/24 02:53:53;;;;;;;8.75;5.68;;;;;;;16.39;82.72;97112.09;5052400;28;20547;-73
2023/06/24 02:56:22;;;;;;;6.45;5.03;;;;;;;16.39;82.86;97106.59;5055028;28;20053;-73
2023/06/24 02:58:48;;;;;;;8.35;4.80;;;;;;;16.41;82.92;97120.00;5051931;28;20045;-74
2023/06/24 03:01:16;;;;;;;7.50;5.18;;;;;;;16.42;82.72;97111.41;5043339;28;20059;-74
2023/06/24 03:03:43;;;;;;;6.93;5.13;;;;;;;16.33;82.85;97118.13;5053773;28;20052;-74
2023/06/24 03:06:12;;;;;;;9.73;6.30;;;;;;;16.25;83.41;97127.25;5045532;28;20048;-74
2023/06/24 03:08:39;;;;;;;6.60;4.90;;;;;;;16.30;83.20;97130.59;5050382;28;20048;-74
2023/06/24 03:11:06;;;;;;;7.57;5.60;;;;;;;16.28;83.43;97127.38;5050509;28;20048;-75
2023/06/24 03:13:33;;;;;;;8.07;5.55;;;;;;;16.35;83.34;97129.59;5050550;28;20052;-74
2023/06/24 03:16:00;;;;;;;8.93;5.93;;;;;;;16.35;83.14;97133.16;5048999;28;20045;-73
2023/06/24 03:18:26;;;;;;;7.70;4.80;;;;;;;16.37;83.42;97130.84;5048638;28;20407;-74
2023/06/24 03:20:53;;;;;;;7.57;5.28;;;;;;;16.39;83.12;97136.84;5048208;28;20133;-74
2023/06/24 03:23:19;;;;;;;9.38;5.65;;;;;;;16.33;83.10;97131.88;5048900;28;20045;-74
2023/06/24 03:25:46;;;;;;;7.30;5.47;;;;;;;16.35;83.05;97144.16;5048782;28;20052;-74
2023/06/24 03:28:12;;;;;;;6.85;5.10;;;;;;;16.36;82.65;97148.50;5048871;28;20045;-74
2023/06/24 03:30:40;;;;;;;6.95;5.15;;;;;;;16.37;83.09;97152.84;5054948;28;20044;-74
2023/06/24 03:33:06;;;;;;;9.95;5.75;;;;;;;16.39;83.17;97155.25;5051851;28;20047;-73
2023/06/24 03:35:33;;;;;;;7.55;5.68;;;;;;;16.40;82.86;97157.69;5052020;28;20064;-74
2023/06/24 03:37:59;;;;;;;8.10;5.30;;;;;;;16.35;82.58;97155.13;5053046;28;20411;-74
2023/06/24 03:40:26;;;;;;;8.32;5.38;;;;;;;16.39;82.79;97161.59;5056810;28;20041;-73
2023/06/24 03:42:52;;;;;;;6.80;4.95;;;;;;;16.38;82.76;97162.69;5055674;28;20043;-73
2023/06/24 03:45:19;;;;;;;7.45;5.07;;;;;;;16.31;82.60;97162.44;5052512;28;20045;-74
2023/06/24 03:47:47;;;;;;;8.20;5.80;;;;;;;16.32;82.96;97161.28;5052715;28;20124;-73
2023/06/24 03:50:13;;;;;;;9.07;5.32;;;;;;;16.36;82.99;97156.75;5052105;28;20044;-73
2023/06/24 03:52:40;;;;;;;10.63;5.90;;;;;;;16.26;82.54;97162.63;5052506;28;20049;-73
2023/06/24 03:55:06;;;;;;;7.75;5.50;;;;;;;16.18;83.19;97169.00;5052163;28;20056;-74
2023/06/24 03:57:33;;;;;;;7.60;5.25;;;;;;;16.20;82.56;97174.97;5052590;28;20059;-74
2023/06/24 03:59:59;;;;;;;8.43;4.30;;;;;;;16.31;82.13;97176.19;5052012;28;20053;-74
2023/06/24 04:02:26;;;;;;;7.88;5.47;;;;;;;16.41;82.49;97170.28;5053964;28;20051;-73
2023/06/24 04:04:56;;;;;;;6.30;4.53;;;;;;;16.47;82.05;97168.13;5051819;28;20052;-74
2023/06/24 04:07:27;;;;;;;7.88;5.13;;;;;;;16.48;81.84;97168.94;5052012;28;20067;-74
2023/06/24 04:09:55;;;;;;;5.93;4.60;;;;;;;16.53;81.90;97160.47;5051177;28;20040;-74
2023/06/24 04:12:22;;;;;;;6.90;4.80;;;;;;;16.52;81.23;97159.69;5051953;28;20055;-74
2023/06/24 04:14:49;;;;;;;7.55;5.65;;;;;;;16.52;81.43;97162.44;5051976;28;20040;-74
2023/06/24 04:17:15;;;;;;;8.30;4.70;;;;;;;16.55;81.76;97163.69;5051712;28;20037;-73
2023/06/24 04:19:42;;;;;;;6.45;4.70;;;;;;;16.57;81.56;97161.41;5051984;28;20049;-73
2023/06/24 04:22:10;;;;;;;7.55;5.25;;;;;;;16.58;82.26;97160.28;5051694;28;20136;-74
2023/06/24 04:24:36;;;;;;;8.05;5.53;;;;;;;16.60;82.02;97166.22;5051741;28;20045;-73
2023/06/24 04:27:03;;;;;;;6.90;4.93;;;;;;;16.42;80.76;97166.38;5051402;28;20064;-74
2023/06/24 04:29:30;;;;;;;7.38;5.22;;;;;;;16.51;80.69;97173.78;5051863;28;20044;-73
2023/06/24 04:31:56;;;;;;;6.85;4.38;;;;;;;16.51;81.51;97173.78;5059154;28;20487;-74
2023/06/24 04:34:23;;;;;;;9.48;5.10;;;;;;;16.42;81.44;97169.13;5051056;28;20381;-74
2023/06/24 04:36:49;;;;;;;7.07;4.82;;;;;;;16.50;81.53;97166.66;5052008;28;20037;-74
2023/06/24 04:39:17;;;;;;;8.02;4.53;;;;;;;16.53;81.59;97175.03;5050764;28;20414;-74
2023/06/24 04:41:43;;;;;;;6.72;4.00;;;;;;;16.68;81.02;97170.88;5051707;28;20045;-74
2023/06/24 04:44:10;;;;;;;7.45;5.20;;;;;;;16.73;80.94;97176.19;5051931;28;20041;-74
2023/06/24 04:46:37;;;;;;;7.72;5.13;;;;;;;16.78;80.39;97177.94;5051435;28;20049;-74
2023/06/24 04:49:03;;;;;;;7.40;4.63;;;;;;;16.77;80.19;97177.13;5048289;28;20094;-74
2023/06/24 04:51:30;;;;;;;6.35;4.50;;;;;;;16.73;79.55;97176.19;5051415;28;20505;-73
2023/06/24 04:53:56;;;;;;;7.80;5.55;;;;;;;16.57;79.73;97183.41;5051322;28;20496;-73
2023/06/24 04:56:24;;;;;;;6.35;4.40;;;;;;;16.64;79.42;97178.97;5053440;28;20045;-74
2023/06/24 04:58:51;;;;;;;9.15;4.82;;;;;;;16.70;79.83;97187.81;5051044;28;20090;-74
2023/06/24 05:01:18;;;;;;;5.63;4.30;;;;;;;16.78;80.32;97184.22;5052909;28;20048;-73
2023/06/24 05:03:44;;;;;;;8.07;5.35;;;;;;;16.77;80.41;97190.88;5056335;28;20060;-74
2023/06/24 05:06:11;;;;;;;6.47;5.07;;;;;;;16.75;80.60;97187.63;5049743;28;20053;-74
2023/06/24 05:08:38;;;;;;;7.07;5.18;;;;;;;16.50;80.54;97183.16;5050670;28;20048;-74
2023/06/24 05:11:05;;;;;;;7.25;4.88;;;;;;;16.50;81.01;97194.16;5050406;28;20053;-74
2023/06/24 05:13:33;;;;;;;7.35;5.18;;;;;;;16.38;81.97;97192.94;5051902;28;20102;-73
2023/06/24 05:15:59;;;;;;;6.75;4.75;;;;;;;16.53;81.48;97188.78;5050402;28;20044;-74
2023/06/24 05:18:26;;;;;;;8.25;5.22;;;;;;;16.55;83.07;97189.25;5050575;28;20493;-74
2023/06/24 05:20:52;;;;;;;8.98;4.95;;;;;;;16.49;83.10;97200.78;5058603;28;20040;-74
2023/06/24 05:23:18;;;;;;;7.97;4.95;;;;;;;16.54;83.61;97200.56;5051002;28;20041;-74
2023/06/24 05:25:45;;;;;;;6.50;4.38;;;;;;;16.70;82.95;97193.31;5050478;28;20057;-74
2023/06/24 05:28:11;;;;;;;6.65;4.47;;;;;;;16.80;82.74;97198.44;5050364;28;20653;-74
2023/06/24 05:30:39;;;;;;;6.75;4.65;;;;;;;16.87;81.87;97197.91;5056515;28;20055;-73
2023/06/24 05:33:06;;;;;;;7.32;4.90;;;;;;;16.82;79.66;97209.91;5060266;28;20429;-74
2023/06/24 05:35:32;;;;;;;8.40;4.82;;;;;;;16.80;80.15;97203.94;5051135;28;20041;-74
2023/06/24 05:37:59;;;;;;;6.70;4.50;;;;;;;16.88;79.27;97210.50;5050836;28;20060;-74
2023/06/24 05:40:25;;;;;;;7.03;4.57;;;;;;;16.97;79.36;97194.75;5050381;28;20048;-74
2023/06/24 05:42:52;;;;;;;5.80;4.32;;;;;;;17.01;79.27;97197.59;5059338;28;20052;-77
2023/06/24 05:45:18;;;;;;;7.78;4.68;;;;;;;17.13;78.48;97197.66;5060916;28;20049;-74
2023/06/24 05:47:46;;;;;;;6.88;4.50;;;;;;;17.21;78.42;97207.75;5052389;28;20420;-74
2023/06/24 05:50:13;;;;;;;6.57;4.40;;;;;;;17.26;78.09;97207.53;5053994;28;20509;-74
2023/06/24 05:52:39;;;;;;;5.68;4.30;;;;;;;17.24;75.83;97215.34;5067067;28;20417;-74
2023/06/24 05:55:06;;;;;;;7.68;3.95;;;;;;;17.28;76.31;97219.03;5059977;28;20493;-74
2023/06/24 05:57:33;;;;;;;6.18;3.92;;;;;;;17.26;74.93;97213.03;5056897;28;20386;-74
2023/06/24 05:59:59;;;;;;;5.93;4.13;;;;;;;17.28;74.67;97208.00;5063455;28;20052;-75
2023/06/24 06:02:26;;;;;;;7.97;4.10;;;;;;;17.31;75.41;97210.06;5055134;28;20488;-76
2023/06/24 06:04:54;;;;;;;11.40;4.63;;;;;;;17.23;77.03;97210.97;5068941;28;20131;-76
2023/06/24 06:07:20;;;;;;;6.07;3.88;;;;;;;17.36;77.05;97217.31;5067324;28;20036;-76
2023/06/24 06:09:47;;;;;;;7.80;4.13;;;;;;;17.40;75.93;97216.28;5058029;28;20064;-77
2023/06/24 06:12:13;;;;;;;5.97;4.30;;;;;;;17.50;76.62;97219.75;5067186;28;20076;-75
2023/06/24 06:14:40;;;;;;;6.93;4.00;;;;;;;17.54;76.19;97226.16;5061056;28;20053;-76
2023/06/24 06:17:06;;;;;;;5.97;4.38;;;;;;;17.58;76.75;97227.09;5058863;28;20049;-76
2023/06/24 06:19:33;;;;;;;7.07;4.68;;;;;;;17.55;76.44;97222.28;5065142;28;20053;-76
2023/06/24 06:22:01;;;;;;;6.80;4.65;;;;;;;17.47;75.91;97226.72;5057770;28;20045;-75
2023/06/24 06:24:27;;;;;;;5.07;3.75;;;;;;;17.59;76.56;97223.19;5049938;28;20044;-75
2023/06/24 06:26:54;;;;;;;7.38;4.20;;;;;;;17.61;75.18;97213.44;5050475;28;20044;-75
2023/06/24 06:29:20;;;;;;;7.35;4.72;;;;;;;17.50;73.72;97222.50;5049488;28;20051;-75
2023/06/24 06:31:46;;;;;;;5.85;4.25;;;;;;;17.61;73.58;97220.91;5050170;28;20056;-75
2023/06/24 06:34:13;;;;;;;11.18;5.70;;;;;;;17.54;75.30;97223.41;5049440;28;20532;-75
2023/06/24 06:36:39;;;;;;;8.75;5.00;;;;;;;17.55;74.85;97219.53;5050221;28;20400;-75
2023/06/24 06:39:07;;;;;;;5.38;4.18;;;;;;;17.68;75.93;97221.13;5049424;28;20412;-75
2023/06/24 06:41:34;;;;;;;5.75;4.60;;;;;;;17.66;74.40;97217.94;5049234;28;20041;-74
2023/06/24 06:44:00;;;;;;;10.30;4.75;;;;;;;17.60;73.96;97228.38;5053350;28;20044;-76
2023/06/24 06:46:26;;;;;;;6.45;4.45;;;;;;;17.74;74.91;97222.53;5040711;28;20048;-75
2023/06/24 06:48:53;;;;;;;8.32;5.03;;;;;;;17.73;73.62;97219.00;5049160;28;20476;-75
2023/06/24 06:51:20;;;;;;;5.97;4.55;;;;;;;17.83;73.57;97216.94;5048607;28;20056;-77
2023/06/24 06:53:46;;;;;;;6.97;4.95;;;;;;;17.87;74.09;97224.19;5049238;28;20049;-74
2023/06/24 06:56:19;;;;;;;5.53;4.10;;;;;;;17.94;74.53;97224.41;5047935;28;20408;-75
2023/06/24 06:58:45;;;;;;;6.10;4.30;;;;;;;17.98;73.90;97225.31;5049230;28;20056;-75
2023/06/24 07:01:12;;;;;;;7.68;5.28;;;;;;;18.03;73.71;97226.25;5048243;28;20416;-75
2023/06/24 07:03:38;;;;;;;9.35;6.07;;;;;;;17.98;72.51;97219.81;5049911;28;20072;-74
2023/06/24 07:06:05;;;;;;;6.57;5.28;;;;;;;18.00;73.02;97219.44;5049331;28;20056;-75
2023/06/24 07:08:31;;;;;;;8.52;4.93;;;;;;;18.13;72.64;97220.25;5051759;28;20536;-75
2023/06/24 07:10:58;;;;;;;6.68;4.35;;;;;;;18.12;71.14;97221.41;5053948;28;20044;-74
2023/06/24 07:13:26;;;;;;;6.40;4.53;;;;;;;18.16;71.19;97219.56;5055110;28;20687;-75
2023/06/24 07:15:52;;;;;;;5.97;4.25;;;;;;;18.24;70.16;97219.44;5053753;28;20493;-75
2023/06/24 07:18:19;;;;;;;6.75;4.32;;;;;;;18.24;70.26;97221.41;5053096;28;20071;-75
2023/06/24 07:20:45;;;;;;;6.00;4.70;;;;;;;18.16;69.67;97219.56;5053376;28;20056;-75
2023/06/24 07:23:11;;;;;;;6.85;4.50;;;;;;;18.20;69.12;97214.97;5061164;28;20048;-75
2023/06/24 07:25:38;;;;;;;8.68;4.63;;;;;;;18.20;68.15;97223.22;5053499;28;20056;-74
2023/06/24 07:28:05;;;;;;;6.32;4.30;;;;;;;18.16;68.50;97225.06;5052322;28;20049;-75
2023/06/24 07:30:33;;;;;;;5.88;4.28;;;;;;;18.15;69.22;97227.03;5053502;28;20048;-75
2023/06/24 07:33:05;;;;;;;11.15;4.80;;;;;;;18.13;69.84;97231.28;5053534;28;20045;-75
2023/06/24 07:35:31;;;;;;;8.05;4.35;;;;;;;18.08;68.80;97223.25;5073153;28;20044;-75
2023/06/24 07:37:58;;;;;;;5.57;4.05;;;;;;;18.20;67.31;97231.50;5070464;28;20047;-74
2023/06/24 07:40:24;;;;;;;6.30;4.38;;;;;;;18.28;67.74;97227.84;5071531;28;20052;-75
2023/06/24 07:42:51;;;;;;;4.95;3.15;;;;;;;18.35;62.55;97228.03;5073091;28;20508;-75
2023/06/24 07:45:17;;;;;;;5.57;3.90;;;;;;;18.24;65.69;97226.91;5067905;28;20081;-75
2023/06/24 07:47:45;;;;;;;5.07;3.35;;;;;;;18.32;63.58;97223.22;5072804;28;20063;-75
2023/06/24 07:50:11;;;;;;;4.68;3.42;;;;;;;18.39;62.87;97228.97;5067668;28;20056;-75
2023/06/24 07:52:38;;;;;;;8.30;2.92;;;;;;;18.41;62.10;97229.41;5072810;28;20037;-75
2023/06/24 07:55:05;;;;;;;4.22;2.63;;;;;;;18.46;61.18;97233.88;5071885;28;20048;-75
2023/06/24 07:57:32;;;;;;;3.83;2.63;;;;;;;18.74;61.51;97239.47;5064555;28;20067;-75
2023/06/24 07:59:58;;;;;;;4.57;2.90;;;;;;;18.84;57.98;97236.22;5071792;28;20043;-75
2023/06/24 08:02:26;;;;;;;3.53;2.40;;;;;;;19.14;58.52;97241.41;5072015;28;20047;-75
2023/06/24 08:04:53;;;;;;;3.95;3.00;;;;;;;19.27;54.30;97234.69;5072568;28;20036;-75
2023/06/24 08:07:20;;;;;;;4.55;3.00;;;;;;;19.44;57.44;97234.34;5071532;28;20436;-75
2023/06/24 08:09:46;;;;;;;3.45;2.70;;;;;;;19.61;59.78;97232.44;5072119;28;20048;-75
2023/06/24 08:12:13;;;;;;;3.63;2.80;;;;;;;19.51;52.65;97234.50;5071865;28;20499;-75
2023/06/24 08:14:39;;;;;;;7.15;2.75;;;;;;;19.39;51.76;97234.59;5077155;28;20582;-74
2023/06/24 08:17:06;;;;;;;4.05;2.70;;;;;;;19.25;50.56;97236.97;5092089;28;20051;-75
2023/06/24 08:19:32;;;;;;;4.18;2.78;;;;;;;19.38;54.58;97233.00;5078266;28;20040;-75
2023/06/24 08:22:00;;;;;;;10.20;4.00;;;;;;;19.70;51.58;97230.28;5072333;28;20051;-75
2023/06/24 08:24:27;;;;;;;5.60;2.80;;;;;;;19.73;54.84;97222.09;5071954;28;20045;-76
2023/06/24 08:26:53;;;;;;;4.57;2.63;;;;;;;19.86;51.11;97227.53;5072354;28;20515;-75
2023/06/24 08:29:20;;;;;;;5.68;3.40;;;;;;;20.03;55.20;97221.63;5071527;28;20462;-75
2023/06/24 08:31:46;;;;;;;4.47;3.15;;;;;;;20.14;52.66;97221.88;5072094;28;20045;-74
2023/06/24 08:34:13;;;;;;;4.38;3.05;;;;;;;19.99;51.07;97221.56;5071550;28;20052;-76
2023/06/24 08:36:39;;;;;;;6.80;3.10;;;;;;;19.92;52.38;97221.38;5072456;28;20041;-75
2023/06/24 08:39:08;;;;;;;4.50;2.85;;;;;;;19.93;52.52;97222.97;5070935;28;20411;-75
2023/06/24 08:41:35;;;;;;;5.90;3.00;;;;;;;19.94;57.38;97218.25;5071813;28;20041;-75
2023/06/24 08:44:02;;;;;;;6.05;3.70;;;;;;;20.03;54.87;97221.63;5072004;28;20041;-76
2023/06/24 08:46:29;;;;;;;6.50;4.05;;;;;;;20.03;54.65;97219.66;5082898;28;20051;-75
2023/06/24 08:49:03;;;;;;;5.15;3.60;;;;;;;20.25;55.97;97222.94;5083766;28;20036;-75
2023/06/24 08:51:36;;;;;;;4.90;3.22;;;;;;;20.56;56.06;97211.81;5071343;28;20060;-75
2023/06/24 08:54:03;;;;;;;5.10;3.13;;;;;;;20.86;53.97;97214.03;5071775;28;20072;-76
2023/06/24 08:56:31;;;;;;;4.28;3.40;;;;;;;21.23;54.32;97222.66;5072085;28;20074;-76
2023/06/24 08:58:57;;;;;;;5.72;3.72;;;;;;;21.30;52.70;97222.06;5071906;28;20036;-75
2023/06/24 09:01:25;;;;;;;5.50;3.55;;;;;;;21.51;53.52;97216.91;5071263;28;20059;-75
2023/06/24 09:03:52;;;;;;;6.18;3.38;;;;;;;21.84;53.32;97218.25;5073736;28;20051;-75
2023/06/24 09:06:19;;;;;;;4.10;3.17;;;;;;;22.03;51.55;97220.13;5088082;28;20071;-75
2023/06/24 09:08:54;;;;;;;4.90;3.80;;;;;;;22.00;50.12;97213.38;5082315;28;20044;-75
2023/06/24 09:11:23;;;;;;;6.95;3.60;;;;;;;21.97;50.02;97216.88;5093403;28;20102;-75
2023/06/24 09:13:55;;;;;;;7.10;4.40;;;;;;;21.60;48.35;97217.44;5090754;28;20040;-75
2023/06/24 09:16:22;;;;;;;7.40;4.30;;;;;;;21.62;50.18;97212.34;5075109;28;20087;-75
2023/06/24 09:18:50;;;;;;;5.88;3.72;;;;;;;21.56;51.79;97213.84;5074541;28;20309;-75
2023/06/24 09:21:22;;;;;;;6.97;4.05;;;;;;;21.16;50.15;97210.66;5074859;28;20449;-75
2023/06/24 09:23:52;;;;;;;6.75;4.05;;;;;;;20.95;51.82;97211.84;5081898;28;20042;-75
2023/06/24 09:26:19;;;;;;;6.88;3.83;;;;;;;20.79;53.80;97208.34;5096761;28;20046;-75
2023/06/24 09:28:48;;;;;;;6.45;3.33;;;;;;;20.77;55.16;97210.66;5092071;28;20052;-75
2023/06/24 09:31:16;;;;;;;7.18;4.05;;;;;;;20.78;54.01;97215.84;5076270;28;20040;-75
2023/06/24 09:33:42;;;;;;;8.10;4.75;;;;;;;20.99;53.46;97209.94;5090364;28;20047;-75
2023/06/24 09:36:12;;;;;;;7.85;4.20;;;;;;;21.33;52.31;97210.22;5070888;28;20047;-75
2023/06/24 09:38:40;;;;;;;5.60;3.60;;;;;;;21.80;53.08;97197.97;5062674;28;20052;-75
2023/06/24 09:41:07;;;;;;;5.10;3.75;;;;;;;22.16;52.62;97195.81;5069935;28;20052;-75
2023/06/24 09:43:35;;;;;;;9.00;4.40;;;;;;;22.29;49.13;97199.94;5070302;28;20123;-75
2023/06/24 09:46:02;;;;;;;5.30;4.03;;;;;;;22.35;49.51;97204.03;5069976;28;20047;-75
2023/06/24 09:48:31;;;;;;;8.50;4.88;;;;;;;22.37;49.69;97202.47;5070284;28;20044;-75
2023/06/24 09:51:00;;;;;;;6.75;4.72;;;;;;;22.05;50.18;97207.50;5085173;28;20404;-76
2023/06/24 09:53:28;;;;;;;6.30;3.70;;;;;;;22.03;49.68;97197.94;5076206;28;20039;-75
2023/06/24 09:55:55;;;;;;;9.77;3.95;;;;;;;21.84;51.82;97196.88;5070510;28;20049;-75
2023/06/24 09:58:22;;;;;;;6.70;4.88;;;;;;;21.79;50.03;97194.41;5068425;28;23150;-75
2023/06/24 10:00:50;;;;;;;5.40;4.05;;;;;;;21.88;49.98;97191.41;5070013;28;20044;-75
2023/06/24 10:03:16;;;;;;;6.00;4.18;;;;;;;22.00;49.40;97191.19;5070045;28;20063;-75
2023/06/24 10:05:45;;;;;;;6.68;5.13;;;;;;;22.13;47.49;97191.78;5070248;28;20500;-75
2023/06/24 10:08:14;;;;;;;5.82;4.88;;;;;;;22.12;47.70;97191.00;5069717;28;20049;-76
2023/06/24 10:10:40;;;;;;;7.22;4.38;;;;;;;22.35;46.69;97182.63;5071601;28;20044;-75
2023/06/24 10:13:07;;;;;;;6.30;4.15;;;;;;;21.91;45.54;97174.00;5077884;28;20044;-76
2023/06/24 10:15:36;;;;;;;5.50;4.40;;;;;;;22.20;46.28;97171.69;5075701;28;20059;-75
2023/06/24 10:18:03;;;;;;;6.18;3.90;;;;;;;22.07;48.25;97171.88;5075572;28;20412;-76
2023/06/24 10:20:29;;;;;;;4.70;3.80;;;;;;;21.53;48.61;97174.97;5070576;28;20528;-75
2023/06/24 10:22:59;;;;;;;5.82;4.03;;;;;;;21.59;48.81;97173.47;5070248;28;20044;-75
2023/06/24 10:25:25;;;;;;;4.88;3.42;;;;;;;21.52;49.22;97171.38;5072377;28;20134;-74
2023/06/24 10:27:54;;;;;;;5.03;3.75;;;;;;;21.68;46.89;97164.91;5077416;28;20040;-75
2023/06/24 10:30:23;;;;;;;8.13;3.83;;;;;;;21.78;49.18;97169.84;5078309;28;20479;-75
2023/06/24 10:32:53;;;;;;;4.28;2.85;;;;;;;22.16;48.39;97162.53;5075566;28;20055;-75
2023/06/24 10:35:25;;;;;;;7.88;3.50;;;;;;;22.44;46.06;97162.91;5089762;28;20503;-75
2023/06/24 10:37:56;;;;;;;6.03;3.33;;;;;;;22.58;45.17;97165.88;5077344;28;20446;-75
2023/06/24 10:40:37;;;;;;;6.15;3.83;;;;;;;22.69;44.47;97159.66;5073694;28;20050;-75
2023/06/24 10:43:21;;;;;;;6.22;3.67;;;;;;;22.65;45.39;97157.63;5088856;28;20056;-76
2023/06/24 10:45:49;;;;;;;;;;;;;;;22.75;44.13;97152.59;5087508;28;20044;-75
2023/06/24 10:48:16;;;;;;;6.00;3.50;;;;;;;22.82;43.33;97155.47;5087596;28;19924;-75
2023/06/24 10:50:42;;;;;;;5.55;3.28;;;;;;;22.89;43.64;97141.69;5099537;28;20042;-75
2023/06/24 10:53:09;;;;;;;5.90;3.25;;;;;;;22.79;45.97;97145.91;5089841;28;20048;-75
2023/06/24 10:55:37;;;;;;;8.05;3.67;;;;;;;22.88;45.60;97137.31;5084968;28;20052;-76
2023/06/24 10:58:12;;;;;;;6.50;3.60;;;;;;;23.14;44.29;97136.41;5078124;28;20047;-75
2023/06/24 11:00:39;;;;;;;4.85;3.30;;;;;;;23.07;45.67;97128.00;5084969;28;20051;-75
2023/06/24 11:03:09;;;;;;;7.28;3.60;;;;;;;22.99;43.33;97129.09;5077017;28;20048;-75
2023/06/24 11:05:38;;;;;;;7.53;4.47;;;;;;;23.09;44.64;97120.09;5079964;28;20045;-75
2023/06/24 11:08:06;;;;;;;5.22;3.47;;;;;;;23.16;45.42;97120.94;5088178;28;20066;-76
2023/06/24 11:10:32;;;;;;;5.78;4.32;;;;;;;22.79;45.50;97128.44;5097760;28;20067;-75
2023/06/24 11:13:06;;;;;;;5.70;4.03;;;;;;;22.83;44.22;97120.97;5090561;28;20047;-75
2023/06/24 11:15:33;;;;;;;6.22;4.22;;;;;;;22.65;44.43;97123.53;5080519;28;20052;-75
2023/06/24 11:18:03;;;;;;;4.57;3.55;;;;;;;22.44;46.40;97121.28;5075863;28;20045;-75
2023/06/24 11:20:29;;;;;;;5.65;4.25;;;;;;;21.97;45.25;97121.78;5075374;28;20048;-75
2023/06/24 11:22:56;;;;;;;6.15;3.85;;;;;;;21.97;46.54;97114.25;5058973;28;20052;-74
2023/06/24 11:25:23;;;;;;;6.20;3.72;;;;;;;22.08;47.67;97114.41;5054537;28;20076;-74
2023/06/24 11:27:52;;;;;;;5.43;4.00;;;;;;;21.99;47.87;97105.59;5058538;28;20040;-75
2023/06/24 11:30:20;;;;;;;4.15;3.05;;;;;;;22.12;47.55;97105.00;5050338;28;20049;-75
2023/06/24 11:32:47;;;;;;;7.82;3.30;;;;;;;22.03;46.84;97104.47;5052169;28;20511;-75
2023/06/24 11:35:15;;;;;;;4.45;3.50;;;;;;;21.96;44.50;97103.56;5055113;28;20041;-75
2023/06/24 11:37:43;;;;;;;7.45;3.70;;;;;;;21.88;45.62;97091.56;5055147;28;20431;-75